sensor_id;sensor_type;location;lat;lon;timestamp;temperature;humidity
78536;SHT31;67829;51.968;5.684;2023-05-07T00:02:07;18.3;67.3
78536;SHT31;67829;51.968;5.684;2023-05-07T00:04:36;18.3;67.5
78536;SHT31;67829;51.968;5.684;2023-05-07T00:07:05;18.2;67.8
78536;SHT31;67829;51.968;5.684;2023-05-07T00:09:33;18.2;68.0
78536;SHT31;67829;51.968;5.684;2023-05-07T00:12:03;18.2;67.9
78536;SHT31;67829;51.968;5.684;2023-05-07T00:14:31;18.2;67.9
78536;SHT31;67829;51.968;5.684;2023-05-07T00:17:00;18.2;68.1
78536;SHT31;67829;51.968;5.684;2023-05-07T00:19:28;18.2;67.9
78536;SHT31;67829;51.968;5.684;2023-05-07T00:21:58;18.2;67.4
78536;SHT31;67829;51.968;5.684;2023-05-07T00:24:27;18.2;67.6
78536;SHT31;67829;51.968;5.684;2023-05-07T00:26:55;18.2;67.8
78536;SHT31;67829;51.968;5.684;2023-05-07T00:29:24;18.2;67.7
78536;SHT31;67829;51.968;5.684;2023-05-07T00:31:52;18.1;67.5
78536;SHT31;67829;51.968;5.684;2023-05-07T00:34:22;18.1;67.6
78536;SHT31;67829;51.968;5.684;2023-05-07T00:36:50;18.1;67.7
78536;SHT31;67829;51.968;5.684;2023-05-07T00:39:19;18.1;67.8
78536;SHT31;67829;51.968;5.684;2023-05-07T00:41:48;18.0;68.0
78536;SHT31;67829;51.968;5.684;2023-05-07T00:44:19;18.0;68.1
78536;SHT31;67829;51.968;5.684;2023-05-07T00:46:48;18.0;68.0
78536;SHT31;67829;51.968;5.684;2023-05-07T00:49:18;17.9;68.0
78536;SHT31;67829;51.968;5.684;2023-05-07T00:51:47;17.9;68.2
78536;SHT31;67829;51.968;5.684;2023-05-07T00:54:16;17.9;68.2
78536;SHT31;67829;51.968;5.684;2023-05-07T00:56:45;17.8;68.3
78536;SHT31;67829;51.968;5.684;2023-05-07T00:59:16;17.8;68.5
78536;SHT31;67829;51.968;5.684;2023-05-07T01:01:45;17.8;68.7
78536;SHT31;67829;51.968;5.684;2023-05-07T01:04:14;17.8;68.8
78536;SHT31;67829;51.968;5.684;2023-05-07T01:06:45;17.8;68.5
78536;SHT31;67829;51.968;5.684;2023-05-07T01:09:14;17.8;68.6
78536;SHT31;67829;51.968;5.684;2023-05-07T01:11:46;17.8;69.0
78536;SHT31;67829;51.968;5.684;2023-05-07T01:14:17;17.7;68.9
78536;SHT31;67829;51.968;5.684;2023-05-07T01:16:47;17.7;69.0
78536;SHT31;67829;51.968;5.684;2023-05-07T01:19:18;17.7;69.1
78536;SHT31;67829;51.968;5.684;2023-05-07T01:21:48;17.7;68.9
78536;SHT31;67829;51.968;5.684;2023-05-07T01:24:18;17.7;69.2
78536;SHT31;67829;51.968;5.684;2023-05-07T01:26:46;17.7;69.1
78536;SHT31;67829;51.968;5.684;2023-05-07T01:29:15;17.7;69.2
78536;SHT31;67829;51.968;5.684;2023-05-07T01:31:44;17.7;69.1
78536;SHT31;67829;51.968;5.684;2023-05-07T01:34:18;17.7;69.1
78536;SHT31;67829;51.968;5.684;2023-05-07T01:36:48;17.7;69.2
78536;SHT31;67829;51.968;5.684;2023-05-07T01:39:17;17.7;68.9
78536;SHT31;67829;51.968;5.684;2023-05-07T01:41:46;17.8;69.0
78536;SHT31;67829;51.968;5.684;2023-05-07T01:44:16;17.8;68.8
78536;SHT31;67829;51.968;5.684;2023-05-07T01:46:47;17.8;68.7
78536;SHT31;67829;51.968;5.684;2023-05-07T01:49:17;17.7;68.7
78536;SHT31;67829;51.968;5.684;2023-05-07T01:51:46;17.7;68.5
78536;SHT31;67829;51.968;5.684;2023-05-07T01:54:14;17.7;68.7
78536;SHT31;67829;51.968;5.684;2023-05-07T01:56:43;17.7;68.6
78536;SHT31;67829;51.968;5.684;2023-05-07T01:59:14;17.7;68.8
78536;SHT31;67829;51.968;5.684;2023-05-07T02:01:43;17.7;68.7
78536;SHT31;67829;51.968;5.684;2023-05-07T02:04:11;17.7;68.8
78536;SHT31;67829;51.968;5.684;2023-05-07T02:06:40;17.7;68.6
78536;SHT31;67829;51.968;5.684;2023-05-07T02:09:09;17.7;68.3
78536;SHT31;67829;51.968;5.684;2023-05-07T02:11:37;17.7;68.8
78536;SHT31;67829;51.968;5.684;2023-05-07T02:14:06;17.7;68.6
78536;SHT31;67829;51.968;5.684;2023-05-07T02:16:34;17.7;68.3
78536;SHT31;67829;51.968;5.684;2023-05-07T02:19:03;17.7;68.4
78536;SHT31;67829;51.968;5.684;2023-05-07T02:21:31;17.7;68.7
78536;SHT31;67829;51.968;5.684;2023-05-07T02:24:00;17.7;68.7
78536;SHT31;67829;51.968;5.684;2023-05-07T02:26:28;17.7;68.8
78536;SHT31;67829;51.968;5.684;2023-05-07T02:28:57;17.7;68.8
78536;SHT31;67829;51.968;5.684;2023-05-07T02:31:26;17.7;68.6
78536;SHT31;67829;51.968;5.684;2023-05-07T02:33:54;17.7;68.4
78536;SHT31;67829;51.968;5.684;2023-05-07T02:36:23;17.6;68.4
78536;SHT31;67829;51.968;5.684;2023-05-07T02:38:53;17.6;68.3
78536;SHT31;67829;51.968;5.684;2023-05-07T02:41:22;17.6;68.4
78536;SHT31;67829;51.968;5.684;2023-05-07T02:43:50;17.6;68.5
78536;SHT31;67829;51.968;5.684;2023-05-07T02:46:19;17.6;68.3
78536;SHT31;67829;51.968;5.684;2023-05-07T02:48:47;17.6;68.3
78536;SHT31;67829;51.968;5.684;2023-05-07T02:51:17;17.6;68.1
78536;SHT31;67829;51.968;5.684;2023-05-07T02:53:46;17.6;67.9
78536;SHT31;67829;51.968;5.684;2023-05-07T02:56:14;17.6;68.3
78536;SHT31;67829;51.968;5.684;2023-05-07T02:58:43;17.6;68.2
78536;SHT31;67829;51.968;5.684;2023-05-07T03:01:12;17.6;68.3
78536;SHT31;67829;51.968;5.684;2023-05-07T03:03:41;17.6;67.8
78536;SHT31;67829;51.968;5.684;2023-05-07T03:06:09;17.6;67.9
78536;SHT31;67829;51.968;5.684;2023-05-07T03:08:38;17.6;67.6
78536;SHT31;67829;51.968;5.684;2023-05-07T03:11:09;17.6;67.8
78536;SHT31;67829;51.968;5.684;2023-05-07T03:13:37;17.6;67.7
78536;SHT31;67829;51.968;5.684;2023-05-07T03:16:06;17.6;67.7
78536;SHT31;67829;51.968;5.684;2023-05-07T03:18:35;17.6;67.6
78536;SHT31;67829;51.968;5.684;2023-05-07T03:21:03;17.6;67.6
78536;SHT31;67829;51.968;5.684;2023-05-07T03:23:32;17.6;67.5
78536;SHT31;67829;51.968;5.684;2023-05-07T03:26:00;17.6;67.3
78536;SHT31;67829;51.968;5.684;2023-05-07T03:28:29;17.5;67.6
78536;SHT31;67829;51.968;5.684;2023-05-07T03:30:57;17.5;67.7
78536;SHT31;67829;51.968;5.684;2023-05-07T03:33:26;17.5;67.7
78536;SHT31;67829;51.968;5.684;2023-05-07T03:35:55;17.5;67.7
78536;SHT31;67829;51.968;5.684;2023-05-07T03:38:23;17.5;67.9
78536;SHT31;67829;51.968;5.684;2023-05-07T03:40:52;17.5;68.0
78536;SHT31;67829;51.968;5.684;2023-05-07T03:43:23;17.5;68.0
78536;SHT31;67829;51.968;5.684;2023-05-07T03:45:51;17.4;68.2
78536;SHT31;67829;51.968;5.684;2023-05-07T03:48:20;17.4;68.3
78536;SHT31;67829;51.968;5.684;2023-05-07T03:50:49;17.4;68.4
78536;SHT31;67829;51.968;5.684;2023-05-07T03:53:17;17.4;68.6
78536;SHT31;67829;51.968;5.684;2023-05-07T03:55:46;17.4;68.8
78536;SHT31;67829;51.968;5.684;2023-05-07T03:58:15;17.4;68.9
78536;SHT31;67829;51.968;5.684;2023-05-07T04:00:43;17.4;69.1
78536;SHT31;67829;51.968;5.684;2023-05-07T04:03:12;17.3;69.1
78536;SHT31;67829;51.968;5.684;2023-05-07T04:05:40;17.3;69.2
78536;SHT31;67829;51.968;5.684;2023-05-07T04:08:09;17.3;69.4
78536;SHT31;67829;51.968;5.684;2023-05-07T04:10:39;17.3;69.6
78536;SHT31;67829;51.968;5.684;2023-05-07T04:13:08;17.3;69.7
78536;SHT31;67829;51.968;5.684;2023-05-07T04:15:37;17.3;69.7
78536;SHT31;67829;51.968;5.684;2023-05-07T04:18:06;17.3;69.5
78536;SHT31;67829;51.968;5.684;2023-05-07T04:20:36;17.3;69.7
78536;SHT31;67829;51.968;5.684;2023-05-07T04:23:05;17.4;69.9
78536;SHT31;67829;51.968;5.684;2023-05-07T04:25:33;17.4;69.7
78536;SHT31;67829;51.968;5.684;2023-05-07T04:28:02;17.4;69.5
78536;SHT31;67829;51.968;5.684;2023-05-07T04:30:34;17.4;69.8
78536;SHT31;67829;51.968;5.684;2023-05-07T04:33:04;17.4;69.8
78536;SHT31;67829;51.968;5.684;2023-05-07T04:35:33;17.4;69.8
78536;SHT31;67829;51.968;5.684;2023-05-07T04:38:02;17.4;69.6
78536;SHT31;67829;51.968;5.684;2023-05-07T04:40:30;17.3;69.9
78536;SHT31;67829;51.968;5.684;2023-05-07T04:42:59;17.3;70.0
78536;SHT31;67829;51.968;5.684;2023-05-07T04:45:27;17.3;70.1
78536;SHT31;67829;51.968;5.684;2023-05-07T04:47:56;17.3;70.7
78536;SHT31;67829;51.968;5.684;2023-05-07T04:50:26;17.3;70.8
78536;SHT31;67829;51.968;5.684;2023-05-07T04:52:57;17.3;70.7
78536;SHT31;67829;51.968;5.684;2023-05-07T04:55:25;17.3;70.6
78536;SHT31;67829;51.968;5.684;2023-05-07T04:57:54;17.3;70.8
78536;SHT31;67829;51.968;5.684;2023-05-07T05:00:23;17.3;70.5
78536;SHT31;67829;51.968;5.684;2023-05-07T05:02:52;17.3;70.6
78536;SHT31;67829;51.968;5.684;2023-05-07T05:05:23;17.3;70.5
78536;SHT31;67829;51.968;5.684;2023-05-07T05:07:52;17.3;70.6
78536;SHT31;67829;51.968;5.684;2023-05-07T05:10:21;17.3;70.6
78536;SHT31;67829;51.968;5.684;2023-05-07T05:12:50;17.3;70.7
78536;SHT31;67829;51.968;5.684;2023-05-07T05:15:18;17.3;70.7
78536;SHT31;67829;51.968;5.684;2023-05-07T05:17:47;17.3;70.8
78536;SHT31;67829;51.968;5.684;2023-05-07T05:20:16;17.3;71.1
78536;SHT31;67829;51.968;5.684;2023-05-07T05:22:44;17.2;71.1
78536;SHT31;67829;51.968;5.684;2023-05-07T05:25:15;17.2;71.2
78536;SHT31;67829;51.968;5.684;2023-05-07T05:27:44;17.2;71.4
78536;SHT31;67829;51.968;5.684;2023-05-07T05:30:13;17.2;71.4
78536;SHT31;67829;51.968;5.684;2023-05-07T05:32:42;17.2;71.6
78536;SHT31;67829;51.968;5.684;2023-05-07T05:35:10;17.2;71.5
78536;SHT31;67829;51.968;5.684;2023-05-07T05:37:41;17.2;71.5
78536;SHT31;67829;51.968;5.684;2023-05-07T05:40:12;17.2;71.8
78536;SHT31;67829;51.968;5.684;2023-05-07T05:42:41;17.2;71.7
78536;SHT31;67829;51.968;5.684;2023-05-07T05:45:12;17.2;72.3
78536;SHT31;67829;51.968;5.684;2023-05-07T05:47:40;17.2;72.1
78536;SHT31;67829;51.968;5.684;2023-05-07T05:50:09;17.2;72.2
78536;SHT31;67829;51.968;5.684;2023-05-07T05:52:38;17.2;72.0
78536;SHT31;67829;51.968;5.684;2023-05-07T05:55:07;17.2;72.0
78536;SHT31;67829;51.968;5.684;2023-05-07T05:57:36;17.2;72.1
78536;SHT31;67829;51.968;5.684;2023-05-07T06:00:06;17.2;71.9
78536;SHT31;67829;51.968;5.684;2023-05-07T06:02:34;17.2;72.3
78536;SHT31;67829;51.968;5.684;2023-05-07T06:05:03;17.2;72.0
78536;SHT31;67829;51.968;5.684;2023-05-07T06:07:32;17.2;72.0
78536;SHT31;67829;51.968;5.684;2023-05-07T06:10:01;17.2;72.1
78536;SHT31;67829;51.968;5.684;2023-05-07T06:12:29;17.2;71.9
78536;SHT31;67829;51.968;5.684;2023-05-07T06:14:58;17.3;72.2
78536;SHT31;67829;51.968;5.684;2023-05-07T06:17:26;17.3;72.3
78536;SHT31;67829;51.968;5.684;2023-05-07T06:19:55;17.3;72.3
78536;SHT31;67829;51.968;5.684;2023-05-07T06:22:23;17.3;72.0
78536;SHT31;67829;51.968;5.684;2023-05-07T06:24:52;17.3;71.9
78536;SHT31;67829;51.968;5.684;2023-05-07T06:27:23;17.4;71.8
78536;SHT31;67829;51.968;5.684;2023-05-07T06:29:52;17.4;71.9
78536;SHT31;67829;51.968;5.684;2023-05-07T06:32:20;17.4;72.3
78536;SHT31;67829;51.968;5.684;2023-05-07T06:34:51;17.4;71.9
78536;SHT31;67829;51.968;5.684;2023-05-07T06:37:20;17.4;71.8
78536;SHT31;67829;51.968;5.684;2023-05-07T06:39:48;17.5;71.6
78536;SHT31;67829;51.968;5.684;2023-05-07T06:42:17;17.5;71.5
78536;SHT31;67829;51.968;5.684;2023-05-07T06:44:45;17.5;71.7
78536;SHT31;67829;51.968;5.684;2023-05-07T06:47:14;17.5;71.7
78536;SHT31;67829;51.968;5.684;2023-05-07T06:49:44;17.6;71.7
78536;SHT31;67829;51.968;5.684;2023-05-07T06:52:13;17.6;71.6
78536;SHT31;67829;51.968;5.684;2023-05-07T06:54:42;17.6;71.7
78536;SHT31;67829;51.968;5.684;2023-05-07T06:57:10;17.7;71.7
78536;SHT31;67829;51.968;5.684;2023-05-07T06:59:39;17.7;71.3
78536;SHT31;67829;51.968;5.684;2023-05-07T07:02:07;17.8;71.5
78536;SHT31;67829;51.968;5.684;2023-05-07T07:04:36;17.8;71.2
78536;SHT31;67829;51.968;5.684;2023-05-07T07:07:04;17.9;70.9
78536;SHT31;67829;51.968;5.684;2023-05-07T07:09:33;18.0;70.5
78536;SHT31;67829;51.968;5.684;2023-05-07T07:12:01;18.0;70.6
78536;SHT31;67829;51.968;5.684;2023-05-07T07:14:30;18.0;70.4
78536;SHT31;67829;51.968;5.684;2023-05-07T07:16:59;18.1;70.2
78536;SHT31;67829;51.968;5.684;2023-05-07T07:19:27;18.1;69.9
78536;SHT31;67829;51.968;5.684;2023-05-07T07:21:56;18.2;70.1
78536;SHT31;67829;51.968;5.684;2023-05-07T07:24:24;18.2;70.1
78536;SHT31;67829;51.968;5.684;2023-05-07T07:26:53;18.2;70.1
78536;SHT31;67829;51.968;5.684;2023-05-07T07:29:22;18.3;69.8
78536;SHT31;67829;51.968;5.684;2023-05-07T07:31:52;18.3;70.0
78536;SHT31;67829;51.968;5.684;2023-05-07T07:34:21;18.4;69.9
78536;SHT31;67829;51.968;5.684;2023-05-07T07:36:50;18.4;70.0
78536;SHT31;67829;51.968;5.684;2023-05-07T07:39:18;18.4;70.6
78536;SHT31;67829;51.968;5.684;2023-05-07T07:41:47;18.4;71.1
78536;SHT31;67829;51.968;5.684;2023-05-07T07:44:15;18.5;70.9
78536;SHT31;67829;51.968;5.684;2023-05-07T07:46:44;18.5;69.9
78536;SHT31;67829;51.968;5.684;2023-05-07T07:49:12;18.5;70.5
78536;SHT31;67829;51.968;5.684;2023-05-07T07:51:41;18.5;70.0
78536;SHT31;67829;51.968;5.684;2023-05-07T07:54:10;18.5;70.6
78536;SHT31;67829;51.968;5.684;2023-05-07T07:56:38;18.5;71.1
78536;SHT31;67829;51.968;5.684;2023-05-07T07:59:07;18.6;70.5
78536;SHT31;67829;51.968;5.684;2023-05-07T08:01:36;18.6;70.7
78536;SHT31;67829;51.968;5.684;2023-05-07T08:04:04;18.6;70.2
78536;SHT31;67829;51.968;5.684;2023-05-07T08:06:33;18.6;70.8
78536;SHT31;67829;51.968;5.684;2023-05-07T08:09:02;18.7;69.7
78536;SHT31;67829;51.968;5.684;2023-05-07T08:11:32;18.7;69.6
78536;SHT31;67829;51.968;5.684;2023-05-07T08:14:01;18.7;69.5
78536;SHT31;67829;51.968;5.684;2023-05-07T08:16:30;18.7;70.0
78536;SHT31;67829;51.968;5.684;2023-05-07T08:18:59;18.7;69.7
78536;SHT31;67829;51.968;5.684;2023-05-07T08:21:28;18.8;70.0
78536;SHT31;67829;51.968;5.684;2023-05-07T08:23:57;18.8;70.6
78536;SHT31;67829;51.968;5.684;2023-05-07T08:26:25;18.8;70.5
78536;SHT31;67829;51.968;5.684;2023-05-07T08:28:54;18.9;69.8
78536;SHT31;67829;51.968;5.684;2023-05-07T08:31:22;18.9;69.3
78536;SHT31;67829;51.968;5.684;2023-05-07T08:33:51;18.9;70.3
78536;SHT31;67829;51.968;5.684;2023-05-07T08:36:20;19.0;70.1
78536;SHT31;67829;51.968;5.684;2023-05-07T08:38:49;19.0;70.1
78536;SHT31;67829;51.968;5.684;2023-05-07T08:41:17;19.1;70.1
78536;SHT31;67829;51.968;5.684;2023-05-07T08:43:49;19.1;70.7
78536;SHT31;67829;51.968;5.684;2023-05-07T08:46:20;19.2;69.3
78536;SHT31;67829;51.968;5.684;2023-05-07T08:48:50;19.2;69.5
78536;SHT31;67829;51.968;5.684;2023-05-07T08:51:20;19.3;69.1
78536;SHT31;67829;51.968;5.684;2023-05-07T08:53:50;19.4;66.5
78536;SHT31;67829;51.968;5.684;2023-05-07T08:56:18;19.4;67.2
78536;SHT31;67829;51.968;5.684;2023-05-07T08:58:47;19.5;66.4
78536;SHT31;67829;51.968;5.684;2023-05-07T09:01:17;19.5;66.8
78536;SHT31;67829;51.968;5.684;2023-05-07T09:03:46;19.6;65.9
78536;SHT31;67829;51.968;5.684;2023-05-07T09:06:15;19.6;65.2
78536;SHT31;67829;51.968;5.684;2023-05-07T09:08:48;19.7;65.4
78536;SHT31;67829;51.968;5.684;2023-05-07T09:11:19;19.8;65.0
78536;SHT31;67829;51.968;5.684;2023-05-07T09:13:48;19.8;65.1
78536;SHT31;67829;51.968;5.684;2023-05-07T09:16:17;19.9;64.2
78536;SHT31;67829;51.968;5.684;2023-05-07T09:18:45;19.9;64.1
78536;SHT31;67829;51.968;5.684;2023-05-07T09:21:18;19.9;64.9
78536;SHT31;67829;51.968;5.684;2023-05-07T09:23:47;20.0;64.5
78536;SHT31;67829;51.968;5.684;2023-05-07T09:26:16;20.0;64.3
78536;SHT31;67829;51.968;5.684;2023-05-07T09:28:45;20.1;65.1
78536;SHT31;67829;51.968;5.684;2023-05-07T09:31:13;20.2;63.6
78536;SHT31;67829;51.968;5.684;2023-05-07T09:33:42;20.2;64.1
78536;SHT31;67829;51.968;5.684;2023-05-07T09:36:11;20.3;64.9
78536;SHT31;67829;51.968;5.684;2023-05-07T09:38:40;20.4;64.1
78536;SHT31;67829;51.968;5.684;2023-05-07T09:41:11;20.4;63.9
78536;SHT31;67829;51.968;5.684;2023-05-07T09:43:40;20.5;63.0
78536;SHT31;67829;51.968;5.684;2023-05-07T09:46:12;20.5;63.2
78536;SHT31;67829;51.968;5.684;2023-05-07T09:48:43;20.6;63.2
78536;SHT31;67829;51.968;5.684;2023-05-07T09:51:21;20.7;63.1
78536;SHT31;67829;51.968;5.684;2023-05-07T09:53:52;20.7;63.0
78536;SHT31;67829;51.968;5.684;2023-05-07T09:56:21;20.8;61.2
78536;SHT31;67829;51.968;5.684;2023-05-07T09:58:54;20.9;61.3
78536;SHT31;67829;51.968;5.684;2023-05-07T10:01:25;21.0;60.8
78536;SHT31;67829;51.968;5.684;2023-05-07T10:03:56;21.0;61.0
78536;SHT31;67829;51.968;5.684;2023-05-07T10:06:26;21.1;60.2
78536;SHT31;67829;51.968;5.684;2023-05-07T10:08:57;21.2;59.2
78536;SHT31;67829;51.968;5.684;2023-05-07T10:11:26;21.2;58.8
78536;SHT31;67829;51.968;5.684;2023-05-07T10:13:55;21.3;59.6
78536;SHT31;67829;51.968;5.684;2023-05-07T10:16:27;21.3;58.8
78536;SHT31;67829;51.968;5.684;2023-05-07T10:18:58;21.3;59.7
78536;SHT31;67829;51.968;5.684;2023-05-07T10:21:27;21.4;60.0
78536;SHT31;67829;51.968;5.684;2023-05-07T10:24:01;21.4;59.2
78536;SHT31;67829;51.968;5.684;2023-05-07T10:26:35;21.5;59.7
78536;SHT31;67829;51.968;5.684;2023-05-07T10:29:14;21.5;58.3
78536;SHT31;67829;51.968;5.684;2023-05-07T10:31:57;21.5;59.2
78536;SHT31;67829;51.968;5.684;2023-05-07T10:34:35;21.5;59.8
78536;SHT31;67829;51.968;5.684;2023-05-07T10:37:05;21.6;60.0
78536;SHT31;67829;51.968;5.684;2023-05-07T10:39:35;21.6;58.9
78536;SHT31;67829;51.968;5.684;2023-05-07T10:42:10;21.6;59.8
78536;SHT31;67829;51.968;5.684;2023-05-07T10:44:39;21.7;58.7
78536;SHT31;67829;51.968;5.684;2023-05-07T10:47:10;21.8;59.4
78536;SHT31;67829;51.968;5.684;2023-05-07T10:50:21;21.8;59.1
78536;SHT31;67829;51.968;5.684;2023-05-07T10:53:22;21.9;58.8
78536;SHT31;67829;51.968;5.684;2023-05-07T10:58:45;22.0;58.2
78536;SHT31;67829;51.968;5.684;2023-05-07T11:01:13;22.0;58.6
78536;SHT31;67829;51.968;5.684;2023-05-07T11:04:14;22.1;57.6
78536;SHT31;67829;51.968;5.684;2023-05-07T11:07:10;22.2;58.4
78536;SHT31;67829;51.968;5.684;2023-05-07T11:09:56;22.2;56.8
78536;SHT31;67829;51.968;5.684;2023-05-07T11:12:48;22.3;56.8
78536;SHT31;67829;51.968;5.684;2023-05-07T11:15:35;22.4;55.8
78536;SHT31;67829;51.968;5.684;2023-05-07T11:18:04;22.4;56.8
78536;SHT31;67829;51.968;5.684;2023-05-07T11:22:48;22.5;55.7
78536;SHT31;67829;51.968;5.684;2023-05-07T11:25:20;22.6;56.0
78536;SHT31;67829;51.968;5.684;2023-05-07T11:27:49;22.6;56.4
78536;SHT31;67829;51.968;5.684;2023-05-07T11:30:19;22.7;56.3
78536;SHT31;67829;51.968;5.684;2023-05-07T11:32:48;22.7;56.8
78536;SHT31;67829;51.968;5.684;2023-05-07T11:35:19;22.8;56.2
78536;SHT31;67829;51.968;5.684;2023-05-07T11:37:59;22.9;55.5
78536;SHT31;67829;51.968;5.684;2023-05-07T11:40:28;22.9;56.3
78536;SHT31;67829;51.968;5.684;2023-05-07T11:42:57;23.0;55.7
78536;SHT31;67829;51.968;5.684;2023-05-07T11:45:26;23.1;56.4
78536;SHT31;67829;51.968;5.684;2023-05-07T11:47:54;23.1;56.0
78536;SHT31;67829;51.968;5.684;2023-05-07T11:50:23;23.2;56.7
78536;SHT31;67829;51.968;5.684;2023-05-07T11:52:52;23.2;55.9
78536;SHT31;67829;51.968;5.684;2023-05-07T11:55:20;23.3;54.4
78536;SHT31;67829;51.968;5.684;2023-05-07T11:57:50;23.3;56.0
78536;SHT31;67829;51.968;5.684;2023-05-07T12:00:19;23.3;54.2
78536;SHT31;67829;51.968;5.684;2023-05-07T12:02:47;23.4;54.7
78536;SHT31;67829;51.968;5.684;2023-05-07T12:05:16;23.4;55.1
78536;SHT31;67829;51.968;5.684;2023-05-07T12:07:45;23.4;55.6
78536;SHT31;67829;51.968;5.684;2023-05-07T12:10:14;23.4;55.1
78536;SHT31;67829;51.968;5.684;2023-05-07T12:12:46;23.5;54.8
78536;SHT31;67829;51.968;5.684;2023-05-07T12:15:17;23.5;54.5
78536;SHT31;67829;51.968;5.684;2023-05-07T12:17:51;23.5;53.9
78536;SHT31;67829;51.968;5.684;2023-05-07T12:20:19;23.6;52.5
78536;SHT31;67829;51.968;5.684;2023-05-07T12:22:50;23.6;53.0
78536;SHT31;67829;51.968;5.684;2023-05-07T12:25:20;23.6;52.6
78536;SHT31;67829;51.968;5.684;2023-05-07T12:27:53;23.7;51.8
78536;SHT31;67829;51.968;5.684;2023-05-07T12:30:24;23.7;53.7
78536;SHT31;67829;51.968;5.684;2023-05-07T12:32:54;23.7;52.0
78536;SHT31;67829;51.968;5.684;2023-05-07T12:35:30;23.8;54.5
78536;SHT31;67829;51.968;5.684;2023-05-07T12:37:59;23.9;54.9
78536;SHT31;67829;51.968;5.684;2023-05-07T12:40:37;24.0;53.7
78536;SHT31;67829;51.968;5.684;2023-05-07T12:43:08;24.1;51.8
78536;SHT31;67829;51.968;5.684;2023-05-07T12:45:42;24.2;51.9
78536;SHT31;67829;51.968;5.684;2023-05-07T12:48:11;24.3;51.2
78536;SHT31;67829;51.968;5.684;2023-05-07T12:50:41;24.3;52.8
78536;SHT31;67829;51.968;5.684;2023-05-07T12:53:11;24.4;52.7
78536;SHT31;67829;51.968;5.684;2023-05-07T12:55:46;24.4;52.1
78536;SHT31;67829;51.968;5.684;2023-05-07T12:58:19;24.5;51.0
78536;SHT31;67829;51.968;5.684;2023-05-07T13:00:50;24.5;50.2
78536;SHT31;67829;51.968;5.684;2023-05-07T13:03:26;24.5;50.6
78536;SHT31;67829;51.968;5.684;2023-05-07T13:05:57;24.5;51.9
78536;SHT31;67829;51.968;5.684;2023-05-07T13:08:29;24.5;52.1
78536;SHT31;67829;51.968;5.684;2023-05-07T13:11:00;24.5;52.1
78536;SHT31;67829;51.968;5.684;2023-05-07T13:13:30;24.5;51.2
78536;SHT31;67829;51.968;5.684;2023-05-07T13:15:59;24.5;51.5
78536;SHT31;67829;51.968;5.684;2023-05-07T13:18:29;24.5;51.8
78536;SHT31;67829;51.968;5.684;2023-05-07T13:20:59;24.5;51.3
78536;SHT31;67829;51.968;5.684;2023-05-07T13:23:28;24.5;50.0
78536;SHT31;67829;51.968;5.684;2023-05-07T13:25:57;24.5;51.5
78536;SHT31;67829;51.968;5.684;2023-05-07T13:28:26;24.6;50.0
78536;SHT31;67829;51.968;5.684;2023-05-07T13:30:55;24.6;51.1
78536;SHT31;67829;51.968;5.684;2023-05-07T13:33:23;24.7;50.8
78536;SHT31;67829;51.968;5.684;2023-05-07T13:35:52;24.7;49.4
78536;SHT31;67829;51.968;5.684;2023-05-07T13:38:23;24.8;49.1
78536;SHT31;67829;51.968;5.684;2023-05-07T13:40:51;24.9;50.4
78536;SHT31;67829;51.968;5.684;2023-05-07T13:43:20;24.9;50.8
78536;SHT31;67829;51.968;5.684;2023-05-07T13:45:48;25.0;49.2
78536;SHT31;67829;51.968;5.684;2023-05-07T13:48:17;25.1;49.6
78536;SHT31;67829;51.968;5.684;2023-05-07T13:50:45;25.1;51.1
78536;SHT31;67829;51.968;5.684;2023-05-07T13:53:14;25.2;49.1
78536;SHT31;67829;51.968;5.684;2023-05-07T13:55:44;25.3;50.1
78536;SHT31;67829;51.968;5.684;2023-05-07T13:58:13;25.3;48.4
78536;SHT31;67829;51.968;5.684;2023-05-07T14:00:41;25.3;48.3
78536;SHT31;67829;51.968;5.684;2023-05-07T14:03:10;25.4;49.1
78536;SHT31;67829;51.968;5.684;2023-05-07T14:05:38;25.4;49.0
78536;SHT31;67829;51.968;5.684;2023-05-07T14:08:08;25.4;48.6
78536;SHT31;67829;51.968;5.684;2023-05-07T14:10:37;25.4;48.6
78536;SHT31;67829;51.968;5.684;2023-05-07T14:13:06;25.4;47.7
78536;SHT31;67829;51.968;5.684;2023-05-07T14:15:34;25.4;48.0
78536;SHT31;67829;51.968;5.684;2023-05-07T14:18:04;25.4;48.1
78536;SHT31;67829;51.968;5.684;2023-05-07T14:20:33;25.4;48.7
78536;SHT31;67829;51.968;5.684;2023-05-07T14:23:04;25.4;49.4
78536;SHT31;67829;51.968;5.684;2023-05-07T14:25:32;25.3;48.0
78536;SHT31;67829;51.968;5.684;2023-05-07T14:28:01;25.3;48.8
78536;SHT31;67829;51.968;5.684;2023-05-07T14:30:30;25.3;48.5
78536;SHT31;67829;51.968;5.684;2023-05-07T14:32:58;25.3;48.2
78536;SHT31;67829;51.968;5.684;2023-05-07T14:35:27;25.3;47.4
78536;SHT31;67829;51.968;5.684;2023-05-07T14:37:56;25.3;48.3
78536;SHT31;67829;51.968;5.684;2023-05-07T14:40:24;25.2;48.1
78536;SHT31;67829;51.968;5.684;2023-05-07T14:42:53;25.2;48.0
78536;SHT31;67829;51.968;5.684;2023-05-07T14:45:23;25.2;48.7
78536;SHT31;67829;51.968;5.684;2023-05-07T14:47:52;25.2;48.9
78536;SHT31;67829;51.968;5.684;2023-05-07T14:50:21;25.1;48.5
78536;SHT31;67829;51.968;5.684;2023-05-07T14:52:49;25.1;48.4
78536;SHT31;67829;51.968;5.684;2023-05-07T14:55:19;25.1;48.6
78536;SHT31;67829;51.968;5.684;2023-05-07T14:57:48;25.1;49.9
78536;SHT31;67829;51.968;5.684;2023-05-07T15:00:17;25.1;49.5
78536;SHT31;67829;51.968;5.684;2023-05-07T15:02:46;25.1;50.0
78536;SHT31;67829;51.968;5.684;2023-05-07T15:05:14;25.1;49.5
78536;SHT31;67829;51.968;5.684;2023-05-07T15:07:45;25.1;49.7
78536;SHT31;67829;51.968;5.684;2023-05-07T15:10:15;25.1;48.5
78536;SHT31;67829;51.968;5.684;2023-05-07T15:12:44;25.1;48.9
78536;SHT31;67829;51.968;5.684;2023-05-07T15:15:12;25.1;51.2
78536;SHT31;67829;51.968;5.684;2023-05-07T15:17:41;25.1;49.3
78536;SHT31;67829;51.968;5.684;2023-05-07T15:20:12;25.0;48.3
78536;SHT31;67829;51.968;5.684;2023-05-07T15:22:42;25.0;47.5
78536;SHT31;67829;51.968;5.684;2023-05-07T15:25:12;24.9;47.7
78536;SHT31;67829;51.968;5.684;2023-05-07T15:27:41;24.7;48.0
78536;SHT31;67829;51.968;5.684;2023-05-07T15:30:11;24.6;48.1
78536;SHT31;67829;51.968;5.684;2023-05-07T15:32:42;24.4;48.5
78536;SHT31;67829;51.968;5.684;2023-05-07T15:35:11;24.3;48.8
78536;SHT31;67829;51.968;5.684;2023-05-07T15:37:40;24.1;48.0
78536;SHT31;67829;51.968;5.684;2023-05-07T15:40:09;24.0;48.8
78536;SHT31;67829;51.968;5.684;2023-05-07T15:42:38;23.8;49.9
78536;SHT31;67829;51.968;5.684;2023-05-07T15:45:08;23.6;51.3
78536;SHT31;67829;51.968;5.684;2023-05-07T15:47:37;23.5;52.8
78536;SHT31;67829;51.968;5.684;2023-05-07T15:50:06;23.3;53.6
78536;SHT31;67829;51.968;5.684;2023-05-07T15:52:35;23.2;54.9
78536;SHT31;67829;51.968;5.684;2023-05-07T15:55:05;23.0;55.3
78536;SHT31;67829;51.968;5.684;2023-05-07T15:57:34;22.9;56.2
78536;SHT31;67829;51.968;5.684;2023-05-07T16:00:04;22.8;56.0
78536;SHT31;67829;51.968;5.684;2023-05-07T16:02:35;22.6;56.7
78536;SHT31;67829;51.968;5.684;2023-05-07T16:05:04;22.5;57.4
78536;SHT31;67829;51.968;5.684;2023-05-07T16:07:34;22.4;56.7
78536;SHT31;67829;51.968;5.684;2023-05-07T16:10:02;22.3;57.5
78536;SHT31;67829;51.968;5.684;2023-05-07T16:12:31;22.2;58.1
78536;SHT31;67829;51.968;5.684;2023-05-07T16:14:59;22.2;58.3
78536;SHT31;67829;51.968;5.684;2023-05-07T16:17:28;22.1;59.5
78536;SHT31;67829;51.968;5.684;2023-05-07T16:19:57;22.0;59.7
78536;SHT31;67829;51.968;5.684;2023-05-07T16:22:27;21.9;60.2
78536;SHT31;67829;51.968;5.684;2023-05-07T16:24:59;21.8;59.2